createdAt,value
2018-11-21T00:00:10.830Z,94303.36
2018-11-21T00:03:35.743Z,94304.42
2018-11-21T00:07:00.698Z,94311.00
2018-11-21T00:10:25.647Z,94314.86
2018-11-21T00:13:50.595Z,94311.77
2018-11-21T00:17:15.520Z,94307.87
2018-11-21T00:20:40.428Z,94304.20
2018-11-21T00:24:23.991Z,94311.71
2018-11-21T00:27:49.961Z,94310.80
2018-11-21T00:31:14.905Z,94314.13
2018-11-21T00:34:39.823Z,94315.63
2018-11-21T00:38:04.748Z,94314.40
2018-11-21T00:41:30.007Z,94319.94
2018-11-21T00:44:54.933Z,94321.45
2018-11-21T00:48:19.930Z,94314.05
2018-11-21T00:51:45.001Z,94321.59
2018-11-21T00:55:09.925Z,94319.83
2018-11-21T00:58:16.082Z,94325.52
2018-11-21T01:01:41.003Z,94331.84
2018-11-21T01:05:06.251Z,94340.45
2018-11-21T01:08:31.202Z,94342.53
2018-11-21T01:11:56.502Z,94352.44
2018-11-21T01:15:21.739Z,94360.45
2018-11-21T01:18:46.679Z,94352.87
2018-11-21T01:22:11.607Z,94349.31
2018-11-21T01:25:36.776Z,94360.02
2018-11-21T01:29:01.840Z,94350.44
2018-11-21T01:32:27.089Z,94353.87
2018-11-21T01:35:52.292Z,94352.45
2018-11-21T01:39:17.577Z,94354.00
2018-11-21T01:42:42.494Z,94354.20
2018-11-21T01:46:07.425Z,94356.03
2018-11-21T01:49:32.373Z,94357.12
2018-11-21T01:52:57.354Z,94355.83
2018-11-21T01:56:22.571Z,94352.48
2018-11-21T01:59:47.825Z,94341.48
2018-11-21T02:03:12.748Z,94338.09
2018-11-21T02:06:37.973Z,94330.29
2018-11-21T02:10:03.243Z,94331.01
2018-11-21T02:13:28.196Z,94328.13
2018-11-21T02:16:53.116Z,94323.75
2018-11-21T02:20:18.090Z,94323.77
2018-11-21T02:23:43.010Z,94321.67
2018-11-21T02:27:07.957Z,94327.20
2018-11-21T02:30:32.889Z,94327.68
2018-11-21T02:33:58.519Z,94330.53
2018-11-21T02:37:42.060Z,94335.25
2018-11-21T02:41:26.550Z,94333.25
2018-11-21T02:44:51.746Z,94342.90
2018-11-21T02:48:36.193Z,94338.69
2018-11-21T02:52:20.052Z,94342.84
2018-11-21T02:55:45.291Z,94341.02
2018-11-21T02:59:10.580Z,94346.97
2018-11-21T03:02:35.553Z,94349.37
2018-11-21T03:06:00.779Z,94353.81
2018-11-21T03:09:25.839Z,94350.47
2018-11-21T03:12:51.259Z,94353.08
2018-11-21T03:16:16.493Z,94355.05
2018-11-21T03:19:41.713Z,94354.01
2018-11-21T03:23:06.800Z,94359.54
2018-11-21T03:26:32.082Z,94361.52
2018-11-21T03:30:15.910Z,94359.94
2018-11-21T03:33:40.850Z,94364.59
2018-11-21T03:37:06.007Z,94362.16
2018-11-21T03:40:30.953Z,94372.66
2018-11-21T03:43:56.169Z,94381.46
2018-11-21T03:47:02.061Z,94398.09
2018-11-21T03:50:10.593Z,94399.08
2018-11-21T03:53:16.788Z,94410.23
2018-11-21T03:56:42.037Z,94405.58
2018-11-21T04:00:09.222Z,94408.67
2018-11-21T04:03:35.132Z,94412.04
2018-11-21T04:07:00.084Z,94409.97
2018-11-21T04:10:24.995Z,94417.86
2018-11-21T04:13:50.235Z,94420.66
2018-11-21T04:16:56.159Z,94425.38
2018-11-21T04:20:02.278Z,94427.45
2018-11-21T04:23:08.489Z,94429.73
2018-11-21T04:26:14.501Z,94432.03
2018-11-21T04:29:20.727Z,94436.44
2018-11-21T04:32:45.649Z,94435.41
2018-11-21T04:36:10.579Z,94434.84
2018-11-21T04:39:35.559Z,94440.84
2018-11-21T04:43:00.780Z,94435.67
2018-11-21T04:46:26.003Z,94447.48
2018-11-21T04:49:50.952Z,94448.71
2018-11-21T04:53:15.876Z,94438.00
2018-11-21T04:56:42.043Z,94440.88
2018-11-21T05:00:06.867Z,94434.38
2018-11-21T05:03:32.070Z,94444.34
2018-11-21T05:06:57.029Z,94443.38
2018-11-21T05:10:22.506Z,94441.64
2018-11-21T05:13:47.514Z,94448.23
2018-11-21T05:17:12.799Z,94448.43
2018-11-21T05:20:37.780Z,94450.99
2018-11-21T05:24:02.718Z,94454.89
2018-11-21T05:27:21.185Z,94458.77
2018-11-21T05:30:46.448Z,94462.92
2018-11-21T05:34:11.826Z,94469.66
2018-11-21T05:37:37.288Z,94480.05
2018-11-21T05:41:02.221Z,94474.55
2018-11-21T05:44:31.504Z,94477.70
2018-11-21T05:47:52.437Z,94486.34
2018-11-21T05:51:17.363Z,94489.17
2018-11-21T05:54:42.637Z,94492.63
2018-11-21T05:57:48.633Z,94502.84
2018-11-21T06:01:13.550Z,94510.00
2018-11-21T06:04:38.746Z,94508.16
2018-11-21T06:08:03.687Z,94503.78
2018-11-21T06:11:28.636Z,94496.09
2018-11-21T06:14:53.835Z,94500.53
2018-11-21T06:17:59.715Z,94510.30
2018-11-21T06:21:24.656Z,94514.22
2018-11-21T06:24:49.866Z,94516.05
2018-11-21T06:28:15.099Z,94519.38
2018-11-21T06:31:40.017Z,94521.16
2018-11-21T06:35:05.036Z,94529.78
2018-11-21T06:38:30.338Z,94535.77
2018-11-21T06:41:55.269Z,94532.38
2018-11-21T06:45:20.630Z,94534.47
2018-11-21T06:48:45.551Z,94535.98
2018-11-21T06:52:10.490Z,94537.75
2018-11-21T06:55:35.785Z,94541.93
2018-11-21T06:59:00.761Z,94544.01
2018-11-21T07:02:25.716Z,94551.00
2018-11-21T07:05:51.265Z,94560.92
2018-11-21T07:09:16.220Z,94562.81
2018-11-21T07:12:42.075Z,94564.89
2018-11-21T07:16:07.002Z,94566.41
2018-11-21T07:19:31.955Z,94567.97
2018-11-21T07:22:57.510Z,94571.84
2018-11-21T07:26:22.499Z,94566.86
2018-11-21T07:30:06.387Z,94567.79
2018-11-21T07:33:31.319Z,94573.53
2018-11-21T07:36:56.616Z,94572.95
2018-11-21T07:40:21.520Z,94579.16
2018-11-21T07:43:27.664Z,94583.59
2018-11-21T07:46:53.952Z,94582.28
2018-11-21T07:50:20.468Z,94583.05
2018-11-21T07:53:45.744Z,94578.08
2018-11-21T07:57:31.914Z,94575.67
2018-11-21T08:01:05.926Z,94572.55
2018-11-21T08:04:49.771Z,94570.00
2018-11-21T08:08:33.324Z,94578.34
2018-11-21T08:12:16.889Z,94579.99
2018-11-21T08:16:00.480Z,94581.94
2018-11-21T08:19:39.855Z,94578.80
2018-11-21T08:23:23.682Z,94590.37
2018-11-21T08:27:07.281Z,94592.05
2018-11-21T08:30:52.002Z,94600.49
2018-11-21T08:34:17.008Z,94604.55
2018-11-21T08:37:42.223Z,94599.59
2018-11-21T08:41:07.432Z,94604.02
2018-11-21T08:44:33.296Z,94600.15
2018-11-21T08:47:58.370Z,94610.62
2018-11-21T08:51:23.648Z,94622.75
2018-11-21T08:54:48.941Z,94623.75
2018-11-21T08:58:14.274Z,94635.70
2018-11-21T09:01:58.208Z,94628.30
2018-11-21T09:05:23.211Z,94632.75
2018-11-21T09:08:48.923Z,94634.55
2018-11-21T09:12:15.421Z,94631.70
2018-11-21T09:15:57.778Z,94619.90
2018-11-21T09:19:42.142Z,94627.08
2018-11-21T09:23:26.109Z,94634.65
2018-11-21T09:26:51.406Z,94642.20
2018-11-21T09:30:17.945Z,94651.80
2018-11-21T09:33:43.189Z,94644.31
2018-11-21T09:37:08.136Z,94640.52
2018-11-21T09:40:33.511Z,94631.25
2018-11-21T09:43:58.518Z,94627.94
2018-11-21T09:47:24.215Z,94620.87
2018-11-21T09:50:48.958Z,94620.99
2018-11-21T09:54:13.925Z,94626.66
2018-11-21T09:57:39.417Z,94634.75
2018-11-21T10:04:55.805Z,94640.95
2018-11-21T10:08:37.558Z,94632.19
2018-11-21T10:11:43.505Z,94631.53
2018-11-21T10:15:09.367Z,94623.75
2018-11-21T10:18:35.281Z,94625.47
2018-11-21T10:22:00.221Z,94624.26
2018-11-21T10:25:25.131Z,94622.99
2018-11-21T10:28:51.241Z,94616.16
2018-11-21T10:31:57.512Z,94622.47
2018-11-21T10:35:22.487Z,94636.42
2018-11-21T10:38:47.736Z,94634.34
2018-11-21T10:42:13.110Z,94627.33
2018-11-21T10:45:38.105Z,94625.80
2018-11-21T10:49:22.322Z,94636.23
2018-11-21T10:52:31.603Z,94628.91
2018-11-21T10:55:34.238Z,94633.63
2018-11-21T10:58:40.175Z,94639.27
2018-11-21T11:02:24.180Z,94631.16
2018-11-21T11:06:01.131Z,94628.48
2018-11-21T11:09:28.739Z,94630.47
2018-11-21T11:12:53.374Z,94637.28
2018-11-21T11:16:19.876Z,94647.89
2018-11-21T11:20:04.195Z,94646.14
2018-11-21T11:23:47.648Z,94647.54
2018-11-21T11:27:31.504Z,94640.47
2018-11-21T11:31:15.712Z,94647.89
2018-11-21T11:34:38.694Z,94651.13
2018-11-21T11:37:56.192Z,94652.38
2018-11-21T11:41:40.253Z,94653.84
2018-11-21T11:45:24.006Z,94652.05
2018-11-21T11:49:01.662Z,94655.17
2018-11-21T11:52:26.994Z,94645.23
2018-11-21T11:56:04.053Z,94653.32
2018-11-21T11:59:18.259Z,94648.73
2018-11-21T12:03:02.427Z,94648.48
2018-11-21T12:06:46.052Z,94662.01
2018-11-21T12:10:29.605Z,94661.95
2018-11-21T12:14:13.474Z,94651.03
2018-11-21T12:17:57.314Z,94651.50
2018-11-21T12:21:41.134Z,94661.86
2018-11-21T12:25:25.256Z,94659.20
2018-11-21T12:29:09.099Z,94651.95
2018-11-21T12:32:53.941Z,94658.13
2018-11-21T12:36:37.598Z,94656.06
2018-11-21T12:40:21.135Z,94660.66
2018-11-21T12:44:04.737Z,94653.07
2018-11-21T12:47:48.754Z,94652.59
2018-11-21T12:51:32.322Z,94655.69
2018-11-21T12:55:15.867Z,94661.37
2018-11-21T12:59:00.196Z,94668.21
2018-11-21T13:02:43.996Z,94670.52
2018-11-21T13:06:27.525Z,94671.06
2018-11-21T13:10:11.147Z,94667.48
2018-11-21T13:13:54.770Z,94669.35
2018-11-21T13:17:38.337Z,94670.34
2018-11-21T13:21:22.046Z,94669.62
2018-11-21T13:25:05.689Z,94666.83
2018-11-21T13:28:49.519Z,94674.53
2018-11-21T13:32:33.132Z,94677.44
2018-11-21T13:36:16.697Z,94685.50
2018-11-21T13:39:53.949Z,94686.48
2018-11-21T13:43:38.300Z,94691.34
2018-11-21T13:47:21.925Z,94695.83
2018-11-21T13:51:06.023Z,94696.28
2018-11-21T13:54:41.894Z,94694.20
2018-11-21T13:58:25.625Z,94704.15
2018-11-21T14:01:50.628Z,94709.73
2018-11-21T14:10:16.098Z,94713.92
2018-11-21T14:23:35.368Z,94719.61
2018-11-21T14:26:42.321Z,94725.73
2018-11-21T14:29:49.390Z,94725.22
2018-11-21T14:33:14.350Z,94727.31
2018-11-21T14:36:39.713Z,94733.05
2018-11-21T14:40:05.102Z,94727.00
2018-11-21T14:43:30.375Z,94731.86
2018-11-21T14:46:56.865Z,94736.34
2018-11-21T14:50:41.421Z,94740.00
2018-11-21T14:54:25.490Z,94747.58
2018-11-21T14:57:31.431Z,94750.03
2018-11-21T15:00:38.580Z,94766.30
2018-11-21T15:03:45.412Z,94763.67
2018-11-21T15:06:51.415Z,94771.73
2018-11-21T15:09:58.325Z,94774.30
2018-11-21T15:13:23.804Z,94784.44
2018-11-21T15:16:50.633Z,94784.48
2018-11-21T15:20:17.479Z,94797.25
2018-11-21T15:23:43.192Z,94806.61
2018-11-21T15:27:08.661Z,94797.98
2018-11-21T15:30:21.237Z,94799.81
2018-11-21T15:33:27.921Z,94805.30
2018-11-21T15:36:34.384Z,94804.22
2018-11-21T15:39:59.865Z,94811.05
2018-11-21T15:43:25.739Z,94817.06
2018-11-21T15:47:09.456Z,94826.00
2018-11-21T15:50:56.422Z,94829.13
2018-11-21T15:54:21.684Z,94824.52
2018-11-21T15:57:46.998Z,94827.61
2018-11-21T16:00:53.311Z,94836.20
2018-11-21T16:04:00.056Z,94840.34
2018-11-21T16:07:17.727Z,94845.56
2018-11-21T16:11:01.772Z,94839.77
2018-11-21T16:14:28.124Z,94844.47
2018-11-21T16:17:53.527Z,94849.92
2018-11-21T16:21:18.784Z,94855.97
2018-11-21T16:25:03.196Z,94864.25
2018-11-21T16:28:28.878Z,94868.66
2018-11-21T16:31:54.115Z,94867.66
2018-11-21T16:35:19.457Z,94875.24
2018-11-21T16:42:40.852Z,94879.12
2018-11-21T16:46:05.805Z,94886.70
2018-11-21T16:49:49.496Z,94885.39
2018-11-21T16:53:14.769Z,94890.05
2018-11-21T16:56:40.110Z,94888.70
2018-11-21T17:03:54.634Z,94895.02
2018-11-21T17:07:20.041Z,94902.37
2018-11-21T17:10:44.997Z,94897.90
2018-11-21T17:14:10.242Z,94898.69
2018-11-21T17:17:36.339Z,94898.42
2018-11-21T17:20:44.649Z,94913.59
2018-11-21T17:23:51.175Z,94904.96
2018-11-21T17:27:35.326Z,94910.45
2018-11-21T17:31:01.024Z,94911.92
2018-11-21T17:34:25.963Z,94914.59
2018-11-21T17:37:51.216Z,94908.53
2018-11-21T17:40:57.496Z,94910.14
2018-11-21T17:44:22.808Z,94916.41
2018-11-21T17:47:48.216Z,94919.25
2018-11-21T17:51:13.744Z,94917.68
2018-11-21T17:54:39.034Z,94917.16
2018-11-21T17:58:23.695Z,94923.18
2018-11-21T18:01:48.724Z,94924.75
2018-11-21T18:05:15.247Z,94921.87
2018-11-21T18:08:21.784Z,94924.48
2018-11-21T18:11:28.060Z,94921.82
2018-11-21T18:14:34.034Z,94925.78
2018-11-21T18:17:58.955Z,94929.93
2018-11-21T18:21:23.860Z,94936.78
2018-11-21T18:24:49.063Z,94940.14
2018-11-21T18:28:14.250Z,94939.61
2018-11-21T18:31:58.566Z,94943.54
2018-11-21T18:35:24.183Z,94945.89
2018-11-21T18:38:49.128Z,94947.98
2018-11-21T18:42:14.087Z,94955.88
2018-11-21T18:45:32.686Z,94964.81
2018-11-21T18:48:38.688Z,94963.51
2018-11-21T18:51:45.107Z,94965.83
2018-11-21T18:54:51.108Z,94970.27
